Lynchburg, Ohio
Current Conditions -  °F | °C
As of 4:54 PM on Wednesday 28 Jan 2015 (Local Time) from KILN Reporting Station
Clear Clear  
Wind Chill: 23°   Ceiling: Unl
Heat Index: 31°   Visibility: 10mi
Dew Point: 17°   Wind: 9mph
Humidity: 57%   Direction: 140°SE
Pressure: 30.25"   Gusts: NA
Location:  39.24°N, 83.79°W
Report Text: KILN 282154Z AUTO 14008KT 10SM CLR M01/M08 A3025 RMK AO2 SLP281 T10061083
Loading
Personal Weather Stations






























Interactive Weather Map New forecast layout! Learn more

10-Day Weather Forecast

Advertisements
Track Severe Weather on mobile